Time;durP1;ratioP1;P1;durP2;ratioP2;P2;SDS_P1;SDS_P2;PMS_P1;PMS_P2;Temp;Humidity;BMP_temperature;BMP_pressure;BME280_temperature;BME280_humidity;BME280_pressure;Samples;Min_cycle;Max_cycle;Signal;HPM_P1;HPM_P2
2023/04/20 00:00:56;;;;;;;7.50;5.90;;;7.10;99.90;;;;;;5028668;28;20570;-75
2023/04/20 00:03:21;;;;;;;10.03;5.97;;;7.10;99.90;;;;;;5031681;28;20173;-76
2023/04/20 00:05:48;;;;;;;10.33;6.40;;;7.20;99.90;;;;;;5034763;28;20228;-76
2023/04/20 00:08:16;;;;;;;9.87;6.77;;;7.20;99.90;;;;;;5031310;28;20291;-76
2023/04/20 00:10:43;;;;;;;9.53;5.97;;;7.20;99.90;;;;;;5038748;28;20212;-76
2023/04/20 00:13:08;;;;;;;9.47;6.40;;;7.20;99.90;;;;;;5030649;28;20169;-76
2023/04/20 00:15:34;;;;;;;9.07;6.30;;;7.20;99.90;;;;;;5031709;28;20632;-76
2023/04/20 00:18:00;;;;;;;8.83;5.63;;;7.20;99.90;;;;;;5047749;28;20207;-73
2023/04/20 00:20:26;;;;;;;9.13;5.77;;;7.10;99.90;;;;;;5031018;28;20204;-75
2023/04/20 00:22:52;;;;;;;9.20;6.30;;;7.10;99.90;;;;;;5028044;28;20253;-76
2023/04/20 00:25:19;;;;;;;9.63;6.23;;;7.10;99.90;;;;;;5019959;28;20305;-73
2023/04/20 00:27:45;;;;;;;7.80;5.03;;;7.20;99.90;;;;;;5025472;28;20180;-76
2023/04/20 00:30:11;;;;;;;7.77;5.17;;;7.10;99.90;;;;;;5031050;28;20208;-75
2023/04/20 00:32:36;;;;;;;9.20;5.80;;;7.10;99.90;;;;;;5026150;28;20219;-73
2023/04/20 00:35:03;;;;;;;9.30;5.57;;;7.00;99.90;;;;;;5029869;28;20204;-76
2023/04/20 00:37:28;;;;;;;8.00;5.87;;;7.10;99.90;;;;;;5026603;28;20211;-75
2023/04/20 00:39:54;;;;;;;7.77;5.80;;;7.00;99.90;;;;;;5028624;28;20717;-75
2023/04/20 00:42:20;;;;;;;8.37;6.00;;;7.00;99.90;;;;;;5029766;28;20169;-76
2023/04/20 00:44:45;;;;;;;7.30;5.77;;;7.00;99.90;;;;;;5028836;28;20221;-75
2023/04/20 00:47:11;;;;;;;8.10;5.70;;;7.00;99.90;;;;;;5044426;28;20239;-75
2023/04/20 00:49:37;;;;;;;8.53;6.00;;;7.00;99.90;;;;;;5030319;28;20786;-75
2023/04/20 00:52:04;;;;;;;8.13;5.67;;;7.10;99.90;;;;;;5029640;28;20204;-76
2023/04/20 00:54:31;;;;;;;7.87;5.20;;;7.10;99.90;;;;;;5026313;28;20263;-75
2023/04/20 00:56:58;;;;;;;7.57;5.60;;;7.00;99.90;;;;;;5031273;28;20200;-76
2023/04/20 00:59:24;;;;;;;7.37;5.40;;;7.00;99.90;;;;;;5025661;28;20283;-75
2023/04/20 01:01:50;;;;;;;7.53;5.67;;;7.10;99.90;;;;;;5046288;28;20303;-75
2023/04/20 01:04:16;;;;;;;7.53;5.37;;;7.20;99.90;;;;;;5028266;28;20466;-75
2023/04/20 01:06:42;;;;;;;7.27;5.57;;;7.30;99.90;;;;;;5030645;28;20179;-75
2023/04/20 01:09:11;;;;;;;8.37;5.07;;;7.10;99.90;;;;;;5046813;28;20405;-75
2023/04/20 01:11:37;;;;;;;8.87;5.30;;;7.10;99.90;;;;;;5034181;28;20228;-76
2023/04/20 01:14:03;;;;;;;7.93;6.07;;;7.10;99.90;;;;;;5023779;28;20264;-76
2023/04/20 01:16:30;;;;;;;7.57;5.03;;;7.10;99.90;;;;;;5029878;28;20776;-74
2023/04/20 01:18:56;;;;;;;8.90;5.27;;;7.10;99.90;;;;;;5049499;28;20185;-74
2023/04/20 01:21:22;;;;;;;8.20;5.33;;;7.00;99.90;;;;;;5033732;28;20169;-75
2023/04/20 01:23:47;;;;;;;5.73;4.73;;;7.00;99.90;;;;;;5028159;28;20213;-75
2023/04/20 01:26:15;;;;;;;7.43;5.40;;;6.90;99.90;;;;;;5031271;28;20208;-75
2023/04/20 01:28:42;;;;;;;8.80;5.87;;;6.90;99.90;;;;;;5030629;28;20216;-75
2023/04/20 01:31:08;;;;;;;9.10;6.70;;;6.90;99.90;;;;;;5032154;28;20232;-76
2023/04/20 01:33:34;;;;;;;8.43;6.10;;;6.90;99.90;;;;;;5047733;28;20686;-75
2023/04/20 01:36:00;;;;;;;9.70;6.13;;;6.90;99.90;;;;;;5030687;28;20299;-74
2023/04/20 01:38:26;;;;;;;9.27;6.93;;;6.90;99.90;;;;;;5032910;28;20208;-75
2023/04/20 01:40:52;;;;;;;6.40;5.53;;;6.90;99.90;;;;;;5024729;28;20235;-74
2023/04/20 01:43:18;;;;;;;11.03;7.47;;;6.80;99.90;;;;;;5029927;28;20234;-73
2023/04/20 01:45:44;;;;;;;10.30;7.23;;;6.90;99.90;;;;;;5024037;28;20184;-74
2023/04/20 01:48:10;;;;;;;10.70;7.00;;;6.90;99.90;;;;;;5027333;28;20200;-76
2023/04/20 01:50:35;;;;;;;10.27;6.97;;;6.80;99.90;;;;;;5027331;28;20214;-76
2023/04/20 01:53:01;;;;;;;9.47;6.70;;;6.80;99.90;;;;;;5033149;28;20584;-75
2023/04/20 01:55:27;;;;;;;11.27;8.10;;;6.90;99.90;;;;;;5031092;28;20208;-76
2023/04/20 01:57:52;;;;;;;11.80;7.73;;;6.90;99.90;;;;;;5030309;28;20196;-76
2023/04/20 02:00:18;;;;;;;15.20;7.90;;;6.90;99.90;;;;;;5029066;28;20205;-73
2023/04/20 02:02:44;;;;;;;12.10;7.60;;;6.90;99.90;;;;;;5030032;28;20282;-75
2023/04/20 02:05:10;;;;;;;9.63;6.90;;;6.90;99.90;;;;;;5031053;28;20212;-74
2023/04/20 02:07:35;;;;;;;11.13;7.30;;;6.80;99.90;;;;;;5027305;28;20305;-73
2023/04/20 02:10:02;;;;;;;12.87;8.30;;;6.90;99.90;;;;;;5031438;28;20207;-76
2023/04/20 02:12:27;;;;;;;13.47;8.50;;;6.90;99.90;;;;;;5030962;28;20200;-75
2023/04/20 02:14:53;;;;;;;11.97;7.70;;;6.80;99.90;;;;;;5030331;28;20204;-75
2023/04/20 02:17:19;;;;;;;11.30;7.27;;;6.90;99.90;;;;;;5027720;28;20585;-75
2023/04/20 02:19:45;;;;;;;9.90;7.20;;;6.90;99.90;;;;;;5021115;28;20242;-76
2023/04/20 02:22:11;;;;;;;10.30;8.00;;;6.90;99.90;;;;;;5022359;28;20181;-75
2023/04/20 02:24:37;;;;;;;11.77;7.73;;;7.00;99.90;;;;;;5026274;28;20180;-75
2023/04/20 02:27:02;;;;;;;11.30;8.03;;;7.00;99.90;;;;;;5027687;28;20200;-75
2023/04/20 02:29:28;;;;;;;10.80;8.40;;;7.00;99.90;;;;;;5024787;28;20214;-74
2023/04/20 02:31:54;;;;;;;11.23;7.63;;;6.90;99.90;;;;;;5024809;28;20212;-76
2023/04/20 02:34:20;;;;;;;11.23;8.20;;;7.00;99.90;;;;;;5021511;28;20212;-75
2023/04/20 02:36:46;;;;;;;12.03;7.77;;;7.00;99.90;;;;;;5024595;28;20235;-75
2023/04/20 02:39:12;;;;;;;13.70;8.77;;;7.10;99.90;;;;;;5028640;28;20622;-75
2023/04/20 02:41:37;;;;;;;15.70;8.07;;;7.10;99.90;;;;;;5027118;28;20200;-72
2023/04/20 02:44:03;;;;;;;14.43;9.47;;;7.00;99.90;;;;;;5027115;28;20633;-75
2023/04/20 02:46:28;;;;;;;15.60;9.97;;;7.00;99.90;;;;;;5029964;28;20212;-75
2023/04/20 02:48:55;;;;;;;17.40;9.37;;;7.00;99.90;;;;;;5038972;28;20173;-75
2023/04/20 02:51:20;;;;;;;11.07;8.80;;;7.00;99.90;;;;;;5033240;28;20295;-75
2023/04/20 02:53:46;;;;;;;13.97;9.27;;;7.00;99.90;;;;;;5034862;28;20224;-75
2023/04/20 02:56:12;;;;;;;13.00;8.97;;;7.00;99.90;;;;;;5035265;28;20774;-76
2023/04/20 02:58:37;;;;;;;18.00;9.97;;;7.10;99.90;;;;;;5025191;28;20250;-75
2023/04/20 03:01:03;;;;;;;15.23;10.17;;;7.00;99.90;;;;;;5025131;28;20726;-75
2023/04/20 03:03:29;;;;;;;13.37;8.90;;;7.10;99.90;;;;;;5031009;28;20551;-76
2023/04/20 03:05:55;;;;;;;14.30;9.47;;;7.10;99.90;;;;;;5025292;28;20279;-75
2023/04/20 03:08:21;;;;;;;16.33;9.97;;;7.10;99.90;;;;;;5028679;28;20224;-75
2023/04/20 03:10:47;;;;;;;15.43;8.93;;;7.10;99.90;;;;;;5025671;28;20216;-76
2023/04/20 03:13:12;;;;;;;16.00;10.47;;;7.10;99.90;;;;;;5032832;28;20183;-75
2023/04/20 03:15:38;;;;;;;15.37;10.17;;;7.10;99.90;;;;;;5032496;28;20191;-77
2023/04/20 03:18:04;;;;;;;15.77;10.60;;;7.10;99.90;;;;;;5032614;28;20714;-79
2023/04/20 03:20:29;;;;;;;15.70;10.73;;;7.10;99.90;;;;;;5030147;28;20208;-78
2023/04/20 03:22:55;;;;;;;13.90;10.03;;;7.10;99.90;;;;;;5032535;28;20228;-75
2023/04/20 03:25:21;;;;;;;15.97;11.43;;;7.20;99.90;;;;;;5031115;28;20230;-75
2023/04/20 03:27:47;;;;;;;15.60;10.73;;;7.10;99.90;;;;;;5033319;28;20722;-78
2023/04/20 03:30:13;;;;;;;23.87;12.63;;;7.20;99.90;;;;;;5033299;28;20287;-77
2023/04/20 03:32:39;;;;;;;17.70;11.40;;;7.20;99.90;;;;;;5031412;28;20216;-78
2023/04/20 03:35:05;;;;;;;17.60;11.50;;;7.20;99.90;;;;;;5024498;28;20267;-78
2023/04/20 03:37:31;;;;;;;18.57;11.87;;;7.20;99.90;;;;;;5026467;28;20295;-75
2023/04/20 03:39:57;;;;;;;20.97;11.90;;;7.20;99.90;;;;;;5030491;28;20292;-78
2023/04/20 03:42:22;;;;;;;17.90;11.77;;;7.20;99.90;;;;;;5033733;28;20180;-77
2023/04/20 03:44:48;;;;;;;14.57;11.00;;;7.20;99.90;;;;;;5033273;28;20224;-77
2023/04/20 03:47:14;;;;;;;15.27;11.40;;;7.20;99.90;;;;;;5027716;28;20201;-77
2023/04/20 03:49:39;;;;;;;17.87;11.53;;;7.30;99.90;;;;;;5031263;28;20242;-78
2023/04/20 03:52:06;;;;;;;16.60;11.27;;;7.30;99.90;;;;;;5031137;28;20205;-78
2023/04/20 03:54:31;;;;;;;15.97;10.97;;;7.30;99.90;;;;;;5029847;28;20279;-77
2023/04/20 03:56:57;;;;;;;18.57;12.13;;;7.40;99.90;;;;;;5027776;28;20296;-77
2023/04/20 03:59:23;;;;;;;19.88;13.60;;;7.30;99.90;;;;;;5027453;28;20846;-76
2023/04/20 04:01:48;;;;;;;18.23;12.50;;;7.40;99.90;;;;;;5031792;28;20456;-78
2023/04/20 04:04:14;;;;;;;20.03;12.63;;;7.40;99.90;;;;;;5030007;28;20209;-78
2023/04/20 04:06:40;;;;;;;19.87;13.03;;;7.40;99.90;;;;;;5030386;28;20176;-78
2023/04/20 04:09:05;;;;;;;22.53;12.90;;;7.20;99.90;;;;;;5030675;28;20197;-74
2023/04/20 04:11:31;;;;;;;22.93;13.73;;;7.30;99.90;;;;;;5032764;28;20658;-77
2023/04/20 04:13:58;;;;;;;20.53;12.40;;;7.30;99.90;;;;;;5025949;28;20258;-77
2023/04/20 04:16:23;;;;;;;19.97;12.50;;;7.30;99.90;;;;;;5028234;28;20583;-77
2023/04/20 04:18:49;;;;;;;19.33;10.83;;;7.20;99.90;;;;;;5027500;28;20180;-77
2023/04/20 04:21:15;;;;;;;18.73;11.77;;;7.20;99.90;;;;;;5024667;28;20212;-78
2023/04/20 04:23:43;;;;;;;21.73;12.23;;;7.10;99.90;;;;;;5026467;28;20200;-77
2023/04/20 04:26:10;;;;;;;21.80;13.07;;;7.10;99.90;;;;;;5026138;28;20208;-77
2023/04/20 04:28:36;;;;;;;22.17;13.00;;;7.20;99.90;;;;;;5028735;28;20287;-77
2023/04/20 04:31:05;;;;;;;23.50;13.07;;;7.20;99.90;;;;;;5034993;28;20288;-78
2023/04/20 04:33:33;;;;;;;19.80;13.13;;;7.10;99.90;;;;;;5031554;28;20227;-77
2023/04/20 04:35:59;;;;;;;23.80;11.57;;;7.20;99.90;;;;;;5028874;28;20237;-77
2023/04/20 04:38:25;;;;;;;23.80;13.17;;;7.20;99.90;;;;;;5030000;28;20196;-78
2023/04/20 04:40:51;;;;;;;21.30;13.17;;;7.20;99.90;;;;;;5027600;28;20213;-77
2023/04/20 04:43:18;;;;;;;22.30;13.87;;;7.20;99.90;;;;;;5031866;28;20204;-77
2023/04/20 04:45:44;;;;;;;24.83;13.60;;;7.20;99.90;;;;;;5038402;28;20172;-75
2023/04/20 04:48:10;;;;;;;23.07;13.83;;;7.20;99.90;;;;;;5032660;28;20258;-77
2023/04/20 04:50:37;;;;;;;24.40;13.07;;;7.30;99.90;;;;;;5027997;28;20240;-77
2023/04/20 04:53:03;;;;;;;22.33;12.73;;;7.20;99.90;;;;;;5029150;28;20267;-77
2023/04/20 04:55:28;;;;;;;23.00;13.67;;;7.20;99.90;;;;;;5024639;28;20318;-77
2023/04/20 04:57:54;;;;;;;24.73;13.77;;;7.20;99.90;;;;;;5026949;28;20271;-74
2023/04/20 05:00:21;;;;;;;26.47;14.97;;;7.20;99.90;;;;;;5031255;28;20192;-78
2023/04/20 05:02:46;;;;;;;27.60;13.40;;;7.30;99.90;;;;;;5027901;28;20212;-78
2023/04/20 05:05:12;;;;;;;22.60;14.60;;;7.30;99.90;;;;;;5030156;28;20323;-77
2023/04/20 05:07:38;;;;;;;25.10;14.03;;;7.30;99.90;;;;;;5027208;28;20687;-77
2023/04/20 05:10:05;;;;;;;24.93;14.83;;;7.30;99.90;;;;;;5027930;28;20254;-78
2023/04/20 05:12:31;;;;;;;24.40;13.63;;;7.30;99.90;;;;;;5029065;28;20247;-75
2023/04/20 05:14:57;;;;;;;26.97;15.30;;;7.30;99.90;;;;;;5036337;28;20203;-77
2023/04/20 05:17:22;;;;;;;24.17;14.60;;;7.40;99.90;;;;;;5030631;28;20581;-78
2023/04/20 05:19:48;;;;;;;25.97;14.20;;;7.40;99.90;;;;;;5040928;28;20643;-79
2023/04/20 05:22:14;;;;;;;23.87;14.67;;;7.40;99.90;;;;;;5031804;28;20212;-75
2023/04/20 05:24:41;;;;;;;29.43;16.33;;;7.50;99.90;;;;;;5031025;28;20169;-78
2023/04/20 05:27:07;;;;;;;24.97;13.93;;;7.60;99.90;;;;;;5029052;28;20583;-78
2023/04/20 05:29:32;;;;;;;24.27;13.83;;;7.60;99.90;;;;;;5030414;28;20347;-78
2023/04/20 05:31:58;;;;;;;23.93;14.67;;;7.60;99.90;;;;;;5020991;28;20987;-76
2023/04/20 05:34:24;;;;;;;21.60;13.43;;;7.60;99.90;;;;;;5027325;28;20213;-74
2023/04/20 05:36:50;;;;;;;22.87;14.77;;;7.50;99.90;;;;;;5022535;28;20583;-77
2023/04/20 05:39:16;;;;;;;26.33;14.07;;;7.60;99.90;;;;;;5026243;28;20305;-74
2023/04/20 05:41:42;;;;;;;20.63;14.40;;;7.50;99.90;;;;;;5028509;28;20714;-77
2023/04/20 05:44:07;;;;;;;23.00;15.37;;;7.60;99.90;;;;;;5028459;28;20579;-78
2023/04/20 05:46:33;;;;;;;22.73;14.57;;;7.60;99.90;;;;;;5028927;28;20577;-75
2023/04/20 05:48:59;;;;;;;22.33;14.47;;;7.60;99.90;;;;;;5021268;28;20187;-77
2023/04/20 05:51:27;;;;;;;22.23;15.10;;;7.60;99.90;;;;;;5024489;28;20283;-78
2023/04/20 05:53:53;;;;;;;22.93;14.20;;;7.70;99.90;;;;;;5020681;28;20204;-77
2023/04/20 05:56:19;;;;;;;20.20;14.10;;;7.70;99.90;;;;;;5029707;28;20643;-76
2023/04/20 05:58:45;;;;;;;26.00;14.93;;;7.80;99.90;;;;;;5026143;28;20307;-77
2023/04/20 06:01:10;;;;;;;23.87;13.80;;;7.60;99.90;;;;;;5029742;28;20196;-75
2023/04/20 06:03:36;;;;;;;25.63;15.03;;;7.60;99.90;;;;;;5030113;28;20184;-77
2023/04/20 06:06:02;;;;;;;23.23;14.97;;;7.60;99.90;;;;;;5030092;28;20254;-78
2023/04/20 06:08:27;;;;;;;21.40;14.00;;;7.70;99.90;;;;;;5026291;28;20251;-77
2023/04/20 06:10:57;;;;;;;50.27;30.07;;;7.60;99.90;;;;;;5026490;28;20216;-76
2023/04/20 06:13:23;;;;;;;26.33;16.33;;;7.70;99.90;;;;;;5027190;28;20212;-77
2023/04/20 06:15:48;;;;;;;22.27;13.47;;;7.80;99.90;;;;;;5025465;28;20191;-75
2023/04/20 06:18:15;;;;;;;23.07;14.87;;;7.90;99.90;;;;;;5025361;28;20205;-77
2023/04/20 06:20:42;;;;;;;20.00;13.13;;;7.90;99.90;;;;;;5027460;28;20208;-76
2023/04/20 06:23:08;;;;;;;23.57;14.47;;;8.00;99.90;;;;;;5034996;28;20200;-77
2023/04/20 06:25:35;;;;;;;22.33;13.63;;;7.90;99.90;;;;;;5028207;28;20203;-78
2023/04/20 06:28:02;;;;;;;23.20;14.47;;;7.90;99.90;;;;;;5034036;28;20259;-77
2023/04/20 06:30:27;;;;;;;21.23;14.20;;;8.10;99.90;;;;;;5029340;28;20199;-76
2023/04/20 06:32:53;;;;;;;22.30;14.37;;;8.00;99.90;;;;;;5027607;28;20219;-76
2023/04/20 06:35:19;;;;;;;25.83;14.23;;;7.90;99.90;;;;;;5029100;28;20216;-77
2023/04/20 06:37:45;;;;;;;22.30;14.30;;;7.90;99.90;;;;;;5024132;28;20261;-77
2023/04/20 06:40:10;;;;;;;23.53;13.87;;;8.10;99.90;;;;;;5024811;28;20669;-78
2023/04/20 06:42:36;;;;;;;24.40;14.90;;;8.00;99.90;;;;;;5028803;28;20183;-80
2023/04/20 06:45:02;;;;;;;19.73;13.23;;;8.10;99.90;;;;;;5030190;28;20220;-77
2023/04/20 06:47:30;;;;;;;24.37;14.40;;;8.00;99.90;;;;;;5028847;28;20284;-78
2023/04/20 06:50:01;;;;;;;22.43;13.80;;;8.00;99.90;;;;;;5019673;28;20637;-78
2023/04/20 06:52:27;;;;;;;20.50;14.30;;;7.90;99.90;;;;;;5020193;28;20226;-78
2023/04/20 06:54:53;;;;;;;27.77;14.67;;;8.10;99.90;;;;;;5026356;28;20608;-78
2023/04/20 06:57:19;;;;;;;22.67;13.60;;;8.10;99.90;;;;;;5027669;28;20686;-75
2023/04/20 06:59:44;;;;;;;23.57;14.53;;;8.20;99.90;;;;;;5028667;28;20217;-77
2023/04/20 07:02:10;;;;;;;20.53;13.53;;;8.30;99.90;;;;;;5024951;28;20728;-78
2023/04/20 07:04:35;;;;;;;21.97;13.17;;;8.40;99.90;;;;;;5026743;28;20581;-76
2023/04/20 07:07:01;;;;;;;19.63;12.60;;;8.30;99.90;;;;;;5026306;28;20269;-77
2023/04/20 07:09:27;;;;;;;19.93;13.10;;;8.50;99.90;;;;;;5023460;28;20196;-77
2023/04/20 07:11:55;;;;;;;22.57;13.97;;;8.60;99.90;;;;;;5035244;28;20236;-77
2023/04/20 07:14:20;;;;;;;19.30;13.13;;;8.90;99.90;;;;;;5030190;28;20204;-78
2023/04/20 07:16:46;;;;;;;18.87;12.53;;;8.90;99.90;;;;;;5029056;28;20211;-76
2023/04/20 07:19:11;;;;;;;21.07;14.27;;;9.10;99.90;;;;;;5035251;28;20197;-77
2023/04/20 07:21:37;;;;;;;20.47;13.77;;;9.20;99.90;;;;;;5029004;28;20703;-76
2023/04/20 07:24:03;;;;;;;24.23;13.90;;;9.10;99.90;;;;;;5029325;28;20209;-78
2023/04/20 07:26:28;;;;;;;22.03;13.37;;;9.00;99.90;;;;;;5027156;28;20231;-76
2023/04/20 07:28:54;;;;;;;22.47;14.33;;;9.10;99.90;;;;;;5021014;28;20892;-78
2023/04/20 07:31:20;;;;;;;21.77;13.53;;;9.00;99.90;;;;;;5027302;28;20232;-78
2023/04/20 07:33:45;;;;;;;20.60;13.20;;;9.10;99.90;;;;;;5032741;28;20223;-78
2023/04/20 07:36:11;;;;;;;19.77;13.87;;;9.30;99.90;;;;;;5029153;28;20695;-77
2023/04/20 07:38:36;;;;;;;21.63;12.90;;;9.40;99.90;;;;;;5027923;28;20287;-77
2023/04/20 07:41:02;;;;;;;22.73;14.50;;;9.50;99.90;;;;;;5025141;28;20274;-77
2023/04/20 07:43:28;;;;;;;16.67;12.07;;;9.70;99.90;;;;;;5024171;28;20239;-78
2023/04/20 07:45:54;;;;;;;21.40;13.40;;;9.60;99.90;;;;;;5024877;28;20176;-79
2023/04/20 07:48:20;;;;;;;21.93;13.97;;;9.80;99.90;;;;;;5029094;28;20252;-76
2023/04/20 07:50:45;;;;;;;19.50;12.97;;;9.50;99.90;;;;;;5030124;28;20224;-78
2023/04/20 07:53:11;;;;;;;19.37;13.43;;;9.70;99.90;;;;;;5040143;28;20710;-77
2023/04/20 07:55:37;;;;;;;20.90;13.20;;;9.90;99.90;;;;;;5032458;28;20628;-77
2023/04/20 07:58:02;;;;;;;19.57;13.03;;;9.90;99.90;;;;;;5028887;28;20651;-78
2023/04/20 08:00:28;;;;;;;17.93;12.37;;;10.00;99.90;;;;;;5031840;28;20203;-77
2023/04/20 08:02:54;;;;;;;16.13;11.23;;;10.10;99.90;;;;;;5031192;28;20215;-76
2023/04/20 08:05:20;;;;;;;21.57;12.80;;;9.70;99.90;;;;;;5029286;28;20204;-77
2023/04/20 08:07:45;;;;;;;16.10;12.33;;;9.50;99.90;;;;;;5029098;28;20350;-76
2023/04/20 08:10:11;;;;;;;17.27;11.73;;;9.50;99.90;;;;;;5023100;28;20205;-77
2023/04/20 08:12:38;;;;;;;18.63;12.90;;;9.50;99.90;;;;;;5024902;28;20204;-79
2023/04/20 08:15:05;;;;;;;18.47;12.23;;;9.50;99.90;;;;;;5029586;28;20714;-77
2023/04/20 08:17:31;;;;;;;17.43;12.60;;;9.50;99.90;;;;;;5028113;28;20209;-77
2023/04/20 08:19:57;;;;;;;16.30;11.40;;;9.60;99.90;;;;;;5027681;28;20224;-77
2023/04/20 08:22:28;;;;;;;18.57;11.67;;;9.80;99.90;;;;;;5030789;28;20212;-77
2023/04/20 08:24:55;;;;;;;14.40;10.73;;;10.00;99.90;;;;;;5030626;28;20180;-78
2023/04/20 08:27:21;;;;;;;18.43;12.33;;;9.90;99.90;;;;;;5026800;28;20260;-77
2023/04/20 08:29:46;;;;;;;19.20;12.80;;;10.10;99.90;;;;;;5031227;28;20374;-77
2023/04/20 08:32:12;;;;;;;21.80;12.67;;;10.00;99.90;;;;;;5037365;28;20294;-76
2023/04/20 08:34:38;;;;;;;17.90;12.30;;;10.00;99.90;;;;;;5031794;28;20238;-77
2023/04/20 08:37:04;;;;;;;16.17;12.00;;;9.90;99.90;;;;;;5025368;28;20837;-77
2023/04/20 08:39:31;;;;;;;18.50;12.13;;;10.00;99.90;;;;;;5033378;28;20195;-77
2023/04/20 08:41:57;;;;;;;20.27;12.93;;;9.90;99.90;;;;;;5028559;28;20212;-78
2023/04/20 08:44:23;;;;;;;17.93;12.23;;;9.90;99.90;;;;;;5023360;28;20263;-75
2023/04/20 08:46:49;;;;;;;17.93;11.77;;;9.80;99.90;;;;;;5024824;28;20311;-79
2023/04/20 08:49:17;;;;;;;14.97;10.97;;;9.70;99.90;;;;;;5028091;28;20299;-78
2023/04/20 08:51:44;;;;;;;15.43;11.70;;;9.50;99.90;;;;;;5029579;28;20283;-77
2023/04/20 08:54:11;;;;;;;19.27;12.07;;;9.40;99.90;;;;;;5028858;28;20702;-78
2023/04/20 08:56:41;;;;;;;18.33;12.90;;;9.30;99.90;;;;;;5025584;28;20204;-77
2023/04/20 08:59:11;;;;;;;18.33;13.13;;;9.30;99.90;;;;;;5024041;28;20216;-77
2023/04/20 09:01:40;;;;;;;19.90;13.83;;;9.30;99.90;;;;;;5024529;28;20216;-76
2023/04/20 09:04:23;;;;;;;21.87;13.33;;;9.20;99.90;;;;;;5024866;28;20608;-78
2023/04/20 09:06:50;;;;;;;21.87;13.87;;;9.20;99.90;;;;;;5029952;28;20662;-78
2023/04/20 09:09:20;;;;;;;17.33;12.83;;;9.20;99.90;;;;;;5030676;28;20218;-77
2023/04/20 09:11:47;;;;;;;19.13;12.50;;;9.10;99.90;;;;;;5030218;28;20240;-78
2023/04/20 09:14:15;;;;;;;19.57;13.50;;;9.20;99.90;;;;;;5031363;28;20266;-77
2023/04/20 09:16:52;;;;;;;19.03;13.43;;;9.20;99.90;;;;;;5031735;28;20204;-77
2023/04/20 09:19:25;;;;;;;19.63;13.63;;;9.10;99.90;;;;;;5029221;28;20211;-75
2023/04/20 09:21:53;;;;;;;20.97;13.70;;;9.10;99.90;;;;;;5015198;28;20181;-77
2023/04/20 09:24:29;;;;;;;20.73;13.57;;;9.10;99.90;;;;;;5027488;28;20619;-77
2023/04/20 09:26:55;;;;;;;19.90;12.60;;;9.00;99.90;;;;;;5029979;28;20208;-77
2023/04/20 09:29:22;;;;;;;19.50;14.23;;;9.00;99.90;;;;;;5028694;28;20219;-76
2023/04/20 09:31:49;;;;;;;20.90;13.93;;;9.00;99.90;;;;;;5031366;28;20255;-77
2023/04/20 09:34:15;;;;;;;20.70;12.83;;;9.00;99.90;;;;;;5031127;28;20212;-78
2023/04/20 09:36:46;;;;;;;18.67;13.13;;;9.00;99.90;;;;;;5023072;28;20251;-77
2023/04/20 09:39:20;;;;;;;19.13;12.03;;;9.00;99.90;;;;;;5024236;28;20263;-78
2023/04/20 09:41:46;;;;;;;17.83;12.17;;;9.00;99.90;;;;;;5027947;28;20860;-76
2023/04/20 09:44:14;;;;;;;15.90;12.00;;;9.00;99.90;;;;;;5027929;28;20212;-76
2023/04/20 09:46:41;;;;;;;19.70;12.67;;;9.30;99.90;;;;;;5030165;28;20216;-76
2023/04/20 09:49:10;;;;;;;17.03;11.63;;;9.50;99.90;;;;;;5024379;28;20188;-76
2023/04/20 09:51:40;;;;;;;18.83;11.93;;;9.50;99.90;;;;;;5030585;28;20246;-78
2023/04/20 09:54:06;;;;;;;17.00;12.20;;;9.70;99.90;;;;;;5029887;28;20706;-77
2023/04/20 09:56:34;;;;;;;18.10;11.67;;;9.80;99.90;;;;;;5030224;28;20207;-75
2023/04/20 09:59:01;;;;;;;15.83;11.37;;;9.90;99.90;;;;;;5023889;28;20218;-76
2023/04/20 10:01:30;;;;;;;17.57;12.40;;;10.00;99.90;;;;;;5024276;28;20208;-77
2023/04/20 10:03:59;;;;;;;19.63;11.40;;;10.10;99.90;;;;;;5024174;28;20184;-77
2023/04/20 10:06:28;;;;;;;19.73;11.60;;;10.20;99.90;;;;;;5028345;28;20457;-74
2023/04/20 10:08:54;;;;;;;15.50;10.73;;;10.30;99.90;;;;;;5028016;28;20218;-77
2023/04/20 10:11:35;;;;;;;21.20;12.40;;;10.30;99.90;;;;;;5025301;28;20710;-77
2023/04/20 10:14:22;;;;;;;16.10;11.37;;;10.50;99.90;;;;;;5020489;28;20603;-77
2023/04/20 10:17:03;;;;;;;14.97;11.70;;;10.80;99.90;;;;;;5025653;28;20291;-78
2023/04/20 10:19:38;;;;;;;18.30;12.87;;;11.10;99.90;;;;;;5028952;28;20209;-77
2023/04/20 10:22:04;;;;;;;17.67;12.07;;;11.00;99.90;;;;;;5021042;28;20206;-78
2023/04/20 10:24:30;;;;;;;15.93;12.60;;;11.10;99.90;;;;;;5029216;28;20184;-77
2023/04/20 10:26:57;;;;;;;18.43;13.07;;;11.30;99.90;;;;;;5028093;28;20212;-74
2023/04/20 10:29:27;;;;;;;19.77;12.17;;;11.30;99.90;;;;;;5029125;28;20220;-74
2023/04/20 10:31:54;;;;;;;17.47;12.23;;;11.10;99.90;;;;;;5030470;28;20240;-78
2023/04/20 10:34:30;;;;;;;17.90;11.80;;;11.00;99.90;;;;;;5029329;28;20266;-78
2023/04/20 10:37:07;;;;;;;14.97;10.90;;;11.20;99.90;;;;;;5026365;28;20177;-75
2023/04/20 10:39:33;;;;;;;16.67;11.53;;;11.40;99.90;;;;;;5020466;28;20592;-78
2023/04/20 10:42:00;;;;;;;16.47;11.67;;;11.50;99.90;;;;;;5021869;28;20269;-77
2023/04/20 10:44:26;;;;;;;17.87;13.03;;;11.80;99.90;;;;;;5026330;28;20212;-74
2023/04/20 10:46:53;;;;;;;14.10;10.80;;;11.50;99.90;;;;;;5027536;28;20239;-76
2023/04/20 10:49:25;;;;;;;16.17;11.63;;;11.80;99.90;;;;;;5022241;28;20224;-76
2023/04/20 10:51:52;;;;;;;13.82;10.35;;;12.00;99.90;;;;;;5029580;28;20264;-78
2023/04/20 10:54:18;;;;;;;12.43;9.88;;;12.30;99.90;;;;;;5034837;28;20227;-74
2023/04/20 10:56:46;;;;;;;14.20;10.57;;;12.10;99.90;;;;;;5026140;28;20219;-76
2023/04/20 10:59:13;;;;;;;14.35;10.07;;;12.10;99.90;;;;;;5024643;28;20331;-75
2023/04/20 11:01:40;;;;;;;12.57;9.75;;;12.20;99.90;;;;;;5023181;28;20212;-76
2023/04/20 11:04:06;;;;;;;13.45;10.38;;;12.40;99.90;;;;;;5029366;28;20203;-75
2023/04/20 11:06:33;;;;;;;13.88;10.13;;;12.20;99.90;;;;;;5030207;28;20177;-75
2023/04/20 11:08:59;;;;;;;13.27;10.27;;;11.90;99.90;;;;;;5035094;28;20445;-76
2023/04/20 11:11:27;;;;;;;14.63;10.97;;;11.80;99.90;;;;;;5035521;28;20215;-77
2023/04/20 11:14:06;;;;;;;14.97;10.03;;;11.90;99.90;;;;;;5033949;28;20234;-77
2023/04/20 11:16:32;;;;;;;15.90;10.20;;;12.00;99.90;;;;;;5036711;28;20219;-76
2023/04/20 11:18:58;;;;;;;14.87;10.37;;;11.90;99.90;;;;;;5036406;28;20184;-75
2023/04/20 11:21:43;;;;;;;14.57;10.17;;;11.80;99.90;;;;;;5029814;28;20271;-76
2023/04/20 11:24:21;;;;;;;13.20;10.47;;;11.80;99.90;;;;;;5028892;28;20683;-77
2023/04/20 11:26:49;;;;;;;13.60;9.93;;;11.60;99.90;;;;;;5032316;28;20266;-75
2023/04/20 11:29:29;;;;;;;15.80;10.67;;;11.70;99.90;;;;;;5027834;28;20703;-74
2023/04/20 11:31:55;;;;;;;15.10;10.20;;;11.80;99.90;;;;;;5033394;28;20215;-77
2023/04/20 11:34:21;;;;;;;13.87;9.97;;;12.00;99.90;;;;;;5033576;28;20208;-75
2023/04/20 11:36:49;;;;;;;14.17;11.03;;;12.20;99.90;;;;;;5030565;28;20251;-75
2023/04/20 11:39:24;;;;;;;15.93;11.57;;;12.10;99.90;;;;;;5031038;28;20216;-76
2023/04/20 11:41:51;;;;;;;15.60;11.23;;;12.10;99.90;;;;;;5030686;28;20601;-75
2023/04/20 11:44:19;;;;;;;12.70;10.25;;;12.20;99.90;;;;;;5030925;28;20219;-76
2023/04/20 11:46:47;;;;;;;17.98;10.32;;;12.30;99.90;;;;;;5032150;28;20222;-75
2023/04/20 11:49:14;;;;;;;13.50;10.73;;;12.40;99.90;;;;;;5028908;28;21339;-76
2023/04/20 11:51:40;;;;;;;16.73;11.63;;;12.50;99.90;;;;;;5033163;28;20200;-74
2023/04/20 11:54:06;;;;;;;14.70;11.27;;;12.50;99.90;;;;;;5032578;28;20216;-76
2023/04/20 11:56:32;;;;;;;20.33;14.40;;;12.70;99.90;;;;;;5033316;28;20208;-76
2023/04/20 11:58:57;;;;;;;30.20;20.98;;;12.80;99.90;;;;;;5037092;28;20623;-76
2023/04/20 12:01:23;;;;;;;14.50;12.02;;;12.90;99.90;;;;;;5023069;28;20217;-77
2023/04/20 12:03:48;;;;;;;19.60;14.02;;;12.90;99.90;;;;;;5026478;28;20649;-75
2023/04/20 12:06:14;;;;;;;17.63;12.60;;;13.00;99.90;;;;;;5029841;28;20291;-75
2023/04/20 12:08:41;;;;;;;13.60;10.95;;;13.20;99.90;;;;;;5027401;28;20295;-76
2023/04/20 12:11:07;;;;;;;14.52;11.45;;;13.10;99.90;;;;;;5030821;28;20208;-75
2023/04/20 12:13:33;;;;;;;15.48;11.30;;;13.00;99.90;;;;;;5030258;28;20196;-75
2023/04/20 12:15:58;;;;;;;16.35;11.70;;;13.00;99.90;;;;;;5031785;28;20267;-74
2023/04/20 12:18:24;;;;;;;17.52;11.85;;;12.80;99.90;;;;;;5028573;28;20318;-78
2023/04/20 12:20:50;;;;;;;16.47;11.50;;;12.70;99.90;;;;;;5028222;28;20567;-76
2023/04/20 12:23:16;;;;;;;17.27;12.10;;;12.80;99.90;;;;;;5031664;28;20204;-76
2023/04/20 12:25:42;;;;;;;14.70;11.40;;;12.80;99.90;;;;;;5032806;28;20254;-75
2023/04/20 12:28:07;;;;;;;14.57;10.85;;;13.00;99.90;;;;;;5029491;28;20276;-77
2023/04/20 12:30:36;;;;;;;16.25;12.20;;;13.20;99.90;;;;;;5032555;28;20200;-77
2023/04/20 12:33:03;;;;;;;15.07;11.40;;;13.30;99.90;;;;;;5028167;28;20716;-76
2023/04/20 12:35:29;;;;;;;14.10;10.80;;;13.30;99.90;;;;;;5029222;28;20209;-75